sensor_id;sensor_type;location;lat;lon;timestamp;P1;durP1;ratioP1;P2;durP2;ratioP2
57113;SDS011;42994;51.606;9.988;2023-02-28T00:00:35;5.68;;;2.53;;
57113;SDS011;42994;51.606;9.988;2023-02-28T00:03:02;3.38;;;2.20;;
57113;SDS011;42994;51.606;9.988;2023-02-28T00:05:29;2.53;;;1.98;;
57113;SDS011;42994;51.606;9.988;2023-02-28T00:07:56;2.83;;;1.92;;
57113;SDS011;42994;51.606;9.988;2023-02-28T00:10:25;3.10;;;1.92;;
57113;SDS011;42994;51.606;9.988;2023-02-28T00:12:53;4.32;;;2.30;;
57113;SDS011;42994;51.606;9.988;2023-02-28T00:15:22;2.42;;;1.98;;
57113;SDS011;42994;51.606;9.988;2023-02-28T00:17:50;3.40;;;2.40;;
57113;SDS011;42994;51.606;9.988;2023-02-28T00:20:17;3.83;;;2.63;;
57113;SDS011;42994;51.606;9.988;2023-02-28T00:22:44;2.88;;;2.47;;
57113;SDS011;42994;51.606;9.988;2023-02-28T00:25:14;2.75;;;2.40;;
57113;SDS011;42994;51.606;9.988;2023-02-28T00:27:43;4.53;;;2.65;;
57113;SDS011;42994;51.606;9.988;2023-02-28T00:30:12;3.47;;;2.30;;
57113;SDS011;42994;51.606;9.988;2023-02-28T00:32:40;4.50;;;2.30;;
57113;SDS011;42994;51.606;9.988;2023-02-28T00:35:07;3.92;;;1.95;;
57113;SDS011;42994;51.606;9.988;2023-02-28T00:37:35;1.88;;;1.77;;
57113;SDS011;42994;51.606;9.988;2023-02-28T00:40:01;2.80;;;2.00;;
57113;SDS011;42994;51.606;9.988;2023-02-28T00:42:31;4.38;;;2.63;;
57113;SDS011;42994;51.606;9.988;2023-02-28T00:44:59;6.05;;;3.28;;
57113;SDS011;42994;51.606;9.988;2023-02-28T00:47:26;6.70;;;4.10;;
57113;SDS011;42994;51.606;9.988;2023-02-28T00:49:54;8.85;;;3.88;;
57113;SDS011;42994;51.606;9.988;2023-02-28T00:52:20;8.70;;;3.90;;
57113;SDS011;42994;51.606;9.988;2023-02-28T00:54:47;11.50;;;6.80;;
57113;SDS011;42994;51.606;9.988;2023-02-28T00:57:14;10.93;;;6.35;;
57113;SDS011;42994;51.606;9.988;2023-02-28T00:59:40;10.30;;;5.55;;
57113;SDS011;42994;51.606;9.988;2023-02-28T01:02:08;7.70;;;5.57;;
57113;SDS011;42994;51.606;9.988;2023-02-28T01:04:35;8.93;;;4.88;;
57113;SDS011;42994;51.606;9.988;2023-02-28T01:07:02;10.95;;;6.63;;
57113;SDS011;42994;51.606;9.988;2023-02-28T01:09:29;8.88;;;5.45;;
57113;SDS011;42994;51.606;9.988;2023-02-28T01:11:57;12.45;;;6.55;;
57113;SDS011;42994;51.606;9.988;2023-02-28T01:14:24;10.13;;;5.80;;
57113;SDS011;42994;51.606;9.988;2023-02-28T01:16:50;9.07;;;5.05;;
57113;SDS011;42994;51.606;9.988;2023-02-28T01:19:19;10.00;;;5.47;;
57113;SDS011;42994;51.606;9.988;2023-02-28T01:21:45;10.70;;;5.60;;
57113;SDS011;42994;51.606;9.988;2023-02-28T01:24:12;6.95;;;4.78;;
57113;SDS011;42994;51.606;9.988;2023-02-28T01:26:38;5.03;;;3.30;;
57113;SDS011;42994;51.606;9.988;2023-02-28T01:29:06;4.93;;;3.15;;
57113;SDS011;42994;51.606;9.988;2023-02-28T01:31:33;4.05;;;2.47;;
57113;SDS011;42994;51.606;9.988;2023-02-28T01:33:59;5.05;;;3.35;;
57113;SDS011;42994;51.606;9.988;2023-02-28T01:36:29;5.00;;;3.47;;
57113;SDS011;42994;51.606;9.988;2023-02-28T01:38:56;5.10;;;3.42;;
57113;SDS011;42994;51.606;9.988;2023-02-28T01:41:23;10.77;;;3.95;;
57113;SDS011;42994;51.606;9.988;2023-02-28T01:43:53;10.38;;;3.45;;
57113;SDS011;42994;51.606;9.988;2023-02-28T01:46:28;5.25;;;3.80;;
57113;SDS011;42994;51.606;9.988;2023-02-28T01:48:57;7.10;;;3.80;;
57113;SDS011;42994;51.606;9.988;2023-02-28T01:51:30;10.50;;;4.22;;
57113;SDS011;42994;51.606;9.988;2023-02-28T01:54:03;8.27;;;4.10;;
57113;SDS011;42994;51.606;9.988;2023-02-28T01:56:39;8.00;;;3.97;;
57113;SDS011;42994;51.606;9.988;2023-02-28T01:59:12;8.60;;;3.55;;
57113;SDS011;42994;51.606;9.988;2023-02-28T02:01:43;9.82;;;3.28;;
57113;SDS011;42994;51.606;9.988;2023-02-28T02:04:10;3.38;;;2.65;;
57113;SDS011;42994;51.606;9.988;2023-02-28T02:06:39;5.47;;;3.47;;
57113;SDS011;42994;51.606;9.988;2023-02-28T02:09:09;5.70;;;3.85;;
57113;SDS011;42994;51.606;9.988;2023-02-28T02:11:36;7.53;;;4.18;;
57113;SDS011;42994;51.606;9.988;2023-02-28T02:14:22;7.38;;;4.20;;
57113;SDS011;42994;51.606;9.988;2023-02-28T02:17:06;6.68;;;4.05;;
57113;SDS011;42994;51.606;9.988;2023-02-28T02:19:50;9.75;;;5.25;;
57113;SDS011;42994;51.606;9.988;2023-02-28T02:22:38;12.45;;;7.88;;
57113;SDS011;42994;51.606;9.988;2023-02-28T02:25:29;10.77;;;6.50;;
57113;SDS011;42994;51.606;9.988;2023-02-28T02:31:21;5.60;;;3.38;;
57113;SDS011;42994;51.606;9.988;2023-02-28T02:37:15;5.57;;;3.60;;
57113;SDS011;42994;51.606;9.988;2023-02-28T02:40:00;6.47;;;4.35;;
57113;SDS011;42994;51.606;9.988;2023-02-28T02:42:35;8.65;;;3.80;;
57113;SDS011;42994;51.606;9.988;2023-02-28T02:45:09;12.18;;;6.80;;
57113;SDS011;42994;51.606;9.988;2023-02-28T02:47:40;6.78;;;4.45;;
57113;SDS011;42994;51.606;9.988;2023-02-28T02:50:11;7.82;;;4.53;;
57113;SDS011;42994;51.606;9.988;2023-02-28T02:52:42;7.25;;;3.30;;
57113;SDS011;42994;51.606;9.988;2023-02-28T02:55:15;8.88;;;3.08;;
57113;SDS011;42994;51.606;9.988;2023-02-28T02:57:46;4.05;;;2.88;;
57113;SDS011;42994;51.606;9.988;2023-02-28T03:00:15;10.60;;;6.00;;
57113;SDS011;42994;51.606;9.988;2023-02-28T03:02:46;8.55;;;5.00;;
57113;SDS011;42994;51.606;9.988;2023-02-28T03:05:14;9.57;;;5.72;;
57113;SDS011;42994;51.606;9.988;2023-02-28T03:07:47;10.82;;;5.65;;
57113;SDS011;42994;51.606;9.988;2023-02-28T03:10:31;12.35;;;5.75;;
57113;SDS011;42994;51.606;9.988;2023-02-28T03:13:03;8.48;;;5.05;;
57113;SDS011;42994;51.606;9.988;2023-02-28T03:15:48;6.50;;;4.20;;
57113;SDS011;42994;51.606;9.988;2023-02-28T03:18:25;6.75;;;3.90;;
57113;SDS011;42994;51.606;9.988;2023-02-28T03:21:00;8.55;;;4.50;;
57113;SDS011;42994;51.606;9.988;2023-02-28T03:23:38;6.97;;;4.10;;
57113;SDS011;42994;51.606;9.988;2023-02-28T03:26:13;6.20;;;3.78;;
57113;SDS011;42994;51.606;9.988;2023-02-28T03:28:48;7.95;;;4.15;;
57113;SDS011;42994;51.606;9.988;2023-02-28T03:31:22;8.68;;;4.45;;
57113;SDS011;42994;51.606;9.988;2023-02-28T03:33:54;6.63;;;4.05;;
57113;SDS011;42994;51.606;9.988;2023-02-28T03:36:26;8.15;;;3.92;;
57113;SDS011;42994;51.606;9.988;2023-02-28T03:38:57;8.38;;;5.22;;
57113;SDS011;42994;51.606;9.988;2023-02-28T03:41:29;8.57;;;4.32;;
57113;SDS011;42994;51.606;9.988;2023-02-28T03:43:59;8.93;;;4.70;;
57113;SDS011;42994;51.606;9.988;2023-02-28T03:46:31;6.43;;;4.00;;
57113;SDS011;42994;51.606;9.988;2023-02-28T03:49:03;6.70;;;3.92;;
57113;SDS011;42994;51.606;9.988;2023-02-28T03:51:37;7.03;;;3.88;;
57113;SDS011;42994;51.606;9.988;2023-02-28T03:54:08;7.47;;;3.95;;
57113;SDS011;42994;51.606;9.988;2023-02-28T03:56:40;4.82;;;3.80;;
57113;SDS011;42994;51.606;9.988;2023-02-28T03:59:10;5.90;;;3.38;;
57113;SDS011;42994;51.606;9.988;2023-02-28T04:01:41;6.43;;;3.92;;
57113;SDS011;42994;51.606;9.988;2023-02-28T04:04:09;5.93;;;3.30;;
57113;SDS011;42994;51.606;9.988;2023-02-28T04:06:37;6.88;;;3.67;;
57113;SDS011;42994;51.606;9.988;2023-02-28T04:09:05;4.53;;;3.10;;
57113;SDS011;42994;51.606;9.988;2023-02-28T04:11:35;4.75;;;3.72;;
57113;SDS011;42994;51.606;9.988;2023-02-28T04:14:03;5.88;;;3.60;;
57113;SDS011;42994;51.606;9.988;2023-02-28T04:16:31;8.80;;;4.80;;
57113;SDS011;42994;51.606;9.988;2023-02-28T04:18:59;5.95;;;4.03;;
57113;SDS011;42994;51.606;9.988;2023-02-28T04:21:28;6.80;;;3.92;;
57113;SDS011;42994;51.606;9.988;2023-02-28T04:23:55;7.82;;;4.90;;
57113;SDS011;42994;51.606;9.988;2023-02-28T04:26:25;6.03;;;4.22;;
57113;SDS011;42994;51.606;9.988;2023-02-28T04:28:56;7.00;;;4.63;;
57113;SDS011;42994;51.606;9.988;2023-02-28T04:31:23;9.15;;;4.55;;
57113;SDS011;42994;51.606;9.988;2023-02-28T04:33:50;8.30;;;4.18;;
57113;SDS011;42994;51.606;9.988;2023-02-28T04:36:16;6.45;;;4.38;;
57113;SDS011;42994;51.606;9.988;2023-02-28T04:38:44;6.35;;;4.32;;
57113;SDS011;42994;51.606;9.988;2023-02-28T04:41:11;5.88;;;4.20;;
57113;SDS011;42994;51.606;9.988;2023-02-28T04:43:38;6.60;;;4.28;;
57113;SDS011;42994;51.606;9.988;2023-02-28T04:46:06;3.65;;;3.22;;
57113;SDS011;42994;51.606;9.988;2023-02-28T04:48:34;5.57;;;3.58;;
57113;SDS011;42994;51.606;9.988;2023-02-28T04:51:02;4.45;;;3.22;;
57113;SDS011;42994;51.606;9.988;2023-02-28T04:53:31;4.43;;;3.05;;
57113;SDS011;42994;51.606;9.988;2023-02-28T04:55:57;3.33;;;2.63;;
57113;SDS011;42994;51.606;9.988;2023-02-28T04:58:24;5.20;;;2.80;;
57113;SDS011;42994;51.606;9.988;2023-02-28T05:00:51;3.75;;;2.35;;
57113;SDS011;42994;51.606;9.988;2023-02-28T05:03:20;3.58;;;2.47;;
57113;SDS011;42994;51.606;9.988;2023-02-28T05:05:47;4.60;;;2.45;;
57113;SDS011;42994;51.606;9.988;2023-02-28T05:08:14;2.78;;;2.45;;
57113;SDS011;42994;51.606;9.988;2023-02-28T05:10:41;5.15;;;2.42;;
57113;SDS011;42994;51.606;9.988;2023-02-28T05:13:08;5.80;;;2.53;;
57113;SDS011;42994;51.606;9.988;2023-02-28T05:15:37;2.63;;;2.05;;
57113;SDS011;42994;51.606;9.988;2023-02-28T05:18:04;5.72;;;2.22;;
57113;SDS011;42994;51.606;9.988;2023-02-28T05:20:32;7.50;;;2.17;;
57113;SDS011;42994;51.606;9.988;2023-02-28T05:22:59;5.10;;;3.20;;
57113;SDS011;42994;51.606;9.988;2023-02-28T05:25:28;2.28;;;1.80;;
57113;SDS011;42994;51.606;9.988;2023-02-28T05:27:55;3.67;;;2.55;;
57113;SDS011;42994;51.606;9.988;2023-02-28T05:30:21;4.40;;;2.17;;
57113;SDS011;42994;51.606;9.988;2023-02-28T05:32:49;2.58;;;1.73;;
57113;SDS011;42994;51.606;9.988;2023-02-28T05:35:17;5.93;;;1.88;;
57113;SDS011;42994;51.606;9.988;2023-02-28T05:37:45;3.78;;;2.38;;
57113;SDS011;42994;51.606;9.988;2023-02-28T05:40:12;3.00;;;1.98;;
57113;SDS011;42994;51.606;9.988;2023-02-28T05:42:39;2.08;;;1.85;;
57113;SDS011;42994;51.606;9.988;2023-02-28T05:45:06;6.25;;;2.05;;
57113;SDS011;42994;51.606;9.988;2023-02-28T05:47:34;3.17;;;2.10;;
57113;SDS011;42994;51.606;9.988;2023-02-28T05:50:01;3.10;;;2.00;;
57113;SDS011;42994;51.606;9.988;2023-02-28T05:52:28;3.15;;;1.88;;
57113;SDS011;42994;51.606;9.988;2023-02-28T05:54:56;3.65;;;2.10;;
57113;SDS011;42994;51.606;9.988;2023-02-28T05:57:23;3.25;;;2.22;;
57113;SDS011;42994;51.606;9.988;2023-02-28T05:59:51;2.40;;;1.90;;
57113;SDS011;42994;51.606;9.988;2023-02-28T06:02:17;5.03;;;2.85;;
57113;SDS011;42994;51.606;9.988;2023-02-28T06:04:44;4.85;;;2.50;;
57113;SDS011;42994;51.606;9.988;2023-02-28T06:07:11;3.65;;;2.65;;
57113;SDS011;42994;51.606;9.988;2023-02-28T06:09:38;5.97;;;3.45;;
57113;SDS011;42994;51.606;9.988;2023-02-28T06:12:06;5.28;;;3.25;;
57113;SDS011;42994;51.606;9.988;2023-02-28T06:14:35;5.82;;;3.50;;
57113;SDS011;42994;51.606;9.988;2023-02-28T06:17:02;4.25;;;3.38;;
57113;SDS011;42994;51.606;9.988;2023-02-28T06:19:29;4.72;;;2.80;;
57113;SDS011;42994;51.606;9.988;2023-02-28T06:21:56;6.13;;;3.13;;
57113;SDS011;42994;51.606;9.988;2023-02-28T06:24:25;7.03;;;2.45;;
57113;SDS011;42994;51.606;9.988;2023-02-28T06:26:53;3.92;;;2.38;;
57113;SDS011;42994;51.606;9.988;2023-02-28T06:29:22;4.47;;;2.95;;
57113;SDS011;42994;51.606;9.988;2023-02-28T06:31:48;4.47;;;2.30;;
57113;SDS011;42994;51.606;9.988;2023-02-28T06:34:15;8.20;;;2.42;;
57113;SDS011;42994;51.606;9.988;2023-02-28T06:36:43;4.63;;;2.28;;
57113;SDS011;42994;51.606;9.988;2023-02-28T06:39:10;4.88;;;2.13;;
57113;SDS011;42994;51.606;9.988;2023-02-28T06:41:36;3.33;;;1.90;;
57113;SDS011;42994;51.606;9.988;2023-02-28T06:44:05;4.75;;;1.88;;
57113;SDS011;42994;51.606;9.988;2023-02-28T06:46:33;2.63;;;1.63;;
57113;SDS011;42994;51.606;9.988;2023-02-28T06:49:00;5.78;;;3.17;;
57113;SDS011;42994;51.606;9.988;2023-02-28T06:51:26;6.60;;;2.38;;
57113;SDS011;42994;51.606;9.988;2023-02-28T06:53:53;7.47;;;2.95;;
57113;SDS011;42994;51.606;9.988;2023-02-28T06:56:19;8.50;;;3.15;;
57113;SDS011;42994;51.606;9.988;2023-02-28T06:58:46;4.65;;;3.30;;
57113;SDS011;42994;51.606;9.988;2023-02-28T07:01:13;4.47;;;2.90;;
57113;SDS011;42994;51.606;9.988;2023-02-28T07:03:42;5.57;;;2.95;;
57113;SDS011;42994;51.606;9.988;2023-02-28T07:06:09;5.18;;;3.63;;
57113;SDS011;42994;51.606;9.988;2023-02-28T07:08:35;6.45;;;2.53;;
57113;SDS011;42994;51.606;9.988;2023-02-28T07:11:02;6.25;;;3.35;;
57113;SDS011;42994;51.606;9.988;2023-02-28T07:13:29;9.13;;;4.80;;
57113;SDS011;42994;51.606;9.988;2023-02-28T07:15:56;9.23;;;5.30;;
57113;SDS011;42994;51.606;9.988;2023-02-28T07:18:24;10.18;;;4.13;;
57113;SDS011;42994;51.606;9.988;2023-02-28T07:20:52;6.28;;;3.58;;
57113;SDS011;42994;51.606;9.988;2023-02-28T07:23:19;3.40;;;2.60;;
57113;SDS011;42994;51.606;9.988;2023-02-28T07:25:46;7.55;;;3.20;;
57113;SDS011;42994;51.606;9.988;2023-02-28T07:28:13;6.00;;;4.20;;
57113;SDS011;42994;51.606;9.988;2023-02-28T07:30:40;5.95;;;3.65;;
57113;SDS011;42994;51.606;9.988;2023-02-28T07:33:07;9.38;;;4.00;;
57113;SDS011;42994;51.606;9.988;2023-02-28T07:35:34;9.25;;;3.78;;
57113;SDS011;42994;51.606;9.988;2023-02-28T07:38:02;4.45;;;3.03;;
57113;SDS011;42994;51.606;9.988;2023-02-28T07:40:29;6.65;;;2.90;;
57113;SDS011;42994;51.606;9.988;2023-02-28T07:42:56;6.50;;;2.53;;
57113;SDS011;42994;51.606;9.988;2023-02-28T07:45:24;5.93;;;2.50;;
57113;SDS011;42994;51.606;9.988;2023-02-28T07:47:51;4.07;;;2.75;;
57113;SDS011;42994;51.606;9.988;2023-02-28T07:50:18;3.58;;;2.38;;
57113;SDS011;42994;51.606;9.988;2023-02-28T07:52:44;7.55;;;3.05;;
57113;SDS011;42994;51.606;9.988;2023-02-28T07:55:12;3.15;;;2.60;;
57113;SDS011;42994;51.606;9.988;2023-02-28T07:57:41;9.73;;;4.43;;
57113;SDS011;42994;51.606;9.988;2023-02-28T08:00:10;6.85;;;4.38;;
57113;SDS011;42994;51.606;9.988;2023-02-28T08:02:39;8.38;;;4.15;;
57113;SDS011;42994;51.606;9.988;2023-02-28T08:05:06;7.80;;;4.88;;
57113;SDS011;42994;51.606;9.988;2023-02-28T08:07:34;6.90;;;4.13;;
57113;SDS011;42994;51.606;9.988;2023-02-28T08:10:00;6.28;;;3.92;;
57113;SDS011;42994;51.606;9.988;2023-02-28T08:12:28;5.07;;;3.58;;
57113;SDS011;42994;51.606;9.988;2023-02-28T08:14:55;8.30;;;3.53;;
57113;SDS011;42994;51.606;9.988;2023-02-28T08:17:21;6.35;;;3.60;;
57113;SDS011;42994;51.606;9.988;2023-02-28T08:19:48;6.18;;;4.15;;
57113;SDS011;42994;51.606;9.988;2023-02-28T08:22:15;5.78;;;3.58;;
57113;SDS011;42994;51.606;9.988;2023-02-28T08:24:42;7.20;;;3.70;;
57113;SDS011;42994;51.606;9.988;2023-02-28T08:27:09;6.05;;;3.50;;
57113;SDS011;42994;51.606;9.988;2023-02-28T08:29:37;4.07;;;3.33;;
57113;SDS011;42994;51.606;9.988;2023-02-28T08:32:05;5.28;;;3.40;;
57113;SDS011;42994;51.606;9.988;2023-02-28T08:34:32;7.78;;;3.30;;
57113;SDS011;42994;51.606;9.988;2023-02-28T08:36:59;8.75;;;3.35;;
57113;SDS011;42994;51.606;9.988;2023-02-28T08:39:26;4.50;;;3.03;;
57113;SDS011;42994;51.606;9.988;2023-02-28T08:41:52;3.38;;;3.00;;
57113;SDS011;42994;51.606;9.988;2023-02-28T08:44:19;7.38;;;3.20;;
57113;SDS011;42994;51.606;9.988;2023-02-28T08:46:47;5.72;;;2.90;;
57113;SDS011;42994;51.606;9.988;2023-02-28T08:49:13;4.88;;;3.25;;
57113;SDS011;42994;51.606;9.988;2023-02-28T08:51:40;6.72;;;3.40;;
57113;SDS011;42994;51.606;9.988;2023-02-28T08:54:07;12.00;;;6.28;;
57113;SDS011;42994;51.606;9.988;2023-02-28T08:56:35;5.00;;;4.00;;
57113;SDS011;42994;51.606;9.988;2023-02-28T08:59:02;8.00;;;2.95;;
57113;SDS011;42994;51.606;9.988;2023-02-28T09:01:29;5.95;;;2.90;;
57113;SDS011;42994;51.606;9.988;2023-02-28T09:03:59;3.60;;;2.92;;
57113;SDS011;42994;51.606;9.988;2023-02-28T09:06:27;3.65;;;3.17;;
57113;SDS011;42994;51.606;9.988;2023-02-28T09:08:55;5.55;;;3.53;;
57113;SDS011;42994;51.606;9.988;2023-02-28T09:11:24;4.65;;;3.63;;
57113;SDS011;42994;51.606;9.988;2023-02-28T09:13:51;5.35;;;4.20;;
57113;SDS011;42994;51.606;9.988;2023-02-28T09:16:18;10.98;;;4.07;;
57113;SDS011;42994;51.606;9.988;2023-02-28T09:18:45;5.47;;;3.60;;
57113;SDS011;42994;51.606;9.988;2023-02-28T09:21:13;6.30;;;4.15;;
57113;SDS011;42994;51.606;9.988;2023-02-28T09:23:41;5.07;;;4.28;;
57113;SDS011;42994;51.606;9.988;2023-02-28T09:26:12;5.70;;;3.45;;
57113;SDS011;42994;51.606;9.988;2023-02-28T09:28:40;4.93;;;3.27;;
57113;SDS011;42994;51.606;9.988;2023-02-28T09:31:06;5.75;;;3.38;;
57113;SDS011;42994;51.606;9.988;2023-02-28T09:33:38;6.78;;;3.35;;
57113;SDS011;42994;51.606;9.988;2023-02-28T09:36:05;3.53;;;2.90;;
57113;SDS011;42994;51.606;9.988;2023-02-28T09:38:34;4.43;;;3.30;;
57113;SDS011;42994;51.606;9.988;2023-02-28T09:41:01;7.65;;;3.13;;
57113;SDS011;42994;51.606;9.988;2023-02-28T09:43:32;5.50;;;3.22;;
57113;SDS011;42994;51.606;9.988;2023-02-28T09:46:03;6.65;;;3.08;;
57113;SDS011;42994;51.606;9.988;2023-02-28T09:48:37;4.15;;;2.88;;
57113;SDS011;42994;51.606;9.988;2023-02-28T09:51:11;3.10;;;2.50;;
57113;SDS011;42994;51.606;9.988;2023-02-28T09:53:43;4.03;;;2.60;;
57113;SDS011;42994;51.606;9.988;2023-02-28T09:56:10;3.60;;;3.30;;
57113;SDS011;42994;51.606;9.988;2023-02-28T09:58:41;3.03;;;2.70;;
57113;SDS011;42994;51.606;9.988;2023-02-28T10:01:27;4.85;;;3.10;;
57113;SDS011;42994;51.606;9.988;2023-02-28T10:04:02;4.38;;;2.85;;
57113;SDS011;42994;51.606;9.988;2023-02-28T10:06:35;3.92;;;2.72;;
57113;SDS011;42994;51.606;9.988;2023-02-28T10:09:11;4.20;;;2.88;;
57113;SDS011;42994;51.606;9.988;2023-02-28T10:11:42;4.50;;;3.10;;
57113;SDS011;42994;51.606;9.988;2023-02-28T10:14:12;3.78;;;3.03;;
57113;SDS011;42994;51.606;9.988;2023-02-28T10:16:42;4.07;;;3.00;;
57113;SDS011;42994;51.606;9.988;2023-02-28T10:19:17;4.95;;;3.28;;
57113;SDS011;42994;51.606;9.988;2023-02-28T10:21:49;7.00;;;3.22;;
57113;SDS011;42994;51.606;9.988;2023-02-28T10:24:26;4.13;;;2.55;;
57113;SDS011;42994;51.606;9.988;2023-02-28T10:26:56;4.00;;;2.75;;
57113;SDS011;42994;51.606;9.988;2023-02-28T10:29:26;3.15;;;2.85;;
57113;SDS011;42994;51.606;9.988;2023-02-28T10:31:54;5.68;;;3.40;;
57113;SDS011;42994;51.606;9.988;2023-02-28T10:34:22;4.72;;;3.35;;
57113;SDS011;42994;51.606;9.988;2023-02-28T10:36:49;4.55;;;3.00;;
57113;SDS011;42994;51.606;9.988;2023-02-28T10:42:18;6.57;;;3.35;;
57113;SDS011;42994;51.606;9.988;2023-02-28T10:44:47;4.65;;;3.00;;
57113;SDS011;42994;51.606;9.988;2023-02-28T10:47:14;5.80;;;2.72;;
57113;SDS011;42994;51.606;9.988;2023-02-28T10:49:46;3.85;;;2.70;;
57113;SDS011;42994;51.606;9.988;2023-02-28T10:52:14;3.85;;;2.80;;
57113;SDS011;42994;51.606;9.988;2023-02-28T10:55:14;4.72;;;2.92;;
57113;SDS011;42994;51.606;9.988;2023-02-28T10:57:46;3.10;;;2.80;;
57113;SDS011;42994;51.606;9.988;2023-02-28T11:00:14;6.03;;;3.10;;
57113;SDS011;42994;51.606;9.988;2023-02-28T11:02:43;5.07;;;2.58;;
57113;SDS011;42994;51.606;9.988;2023-02-28T11:05:25;4.18;;;2.92;;
57113;SDS011;42994;51.606;9.988;2023-02-28T11:07:53;3.83;;;2.63;;
57113;SDS011;42994;51.606;9.988;2023-02-28T11:10:24;7.28;;;3.35;;
57113;SDS011;42994;51.606;9.988;2023-02-28T11:12:54;4.07;;;2.40;;
57113;SDS011;42994;51.606;9.988;2023-02-28T11:15:23;2.63;;;2.35;;
57113;SDS011;42994;51.606;9.988;2023-02-28T11:17:55;3.55;;;2.72;;
57113;SDS011;42994;51.606;9.988;2023-02-28T11:20:23;3.53;;;3.05;;
57113;SDS011;42994;51.606;9.988;2023-02-28T11:22:52;3.45;;;2.75;;
57113;SDS011;42994;51.606;9.988;2023-02-28T11:25:23;6.65;;;3.08;;
57113;SDS011;42994;51.606;9.988;2023-02-28T11:27:52;3.72;;;2.72;;
57113;SDS011;42994;51.606;9.988;2023-02-28T11:30:27;6.22;;;3.28;;
57113;SDS011;42994;51.606;9.988;2023-02-28T11:32:59;5.32;;;2.97;;
57113;SDS011;42994;51.606;9.988;2023-02-28T11:35:27;4.28;;;2.58;;
57113;SDS011;42994;51.606;9.988;2023-02-28T11:37:56;6.30;;;3.67;;
57113;SDS011;42994;51.606;9.988;2023-02-28T11:40:27;5.43;;;3.13;;
57113;SDS011;42994;51.606;9.988;2023-02-28T11:43:04;6.22;;;3.08;;
57113;SDS011;42994;51.606;9.988;2023-02-28T11:45:43;4.28;;;3.00;;
57113;SDS011;42994;51.606;9.988;2023-02-28T11:48:17;7.38;;;3.63;;
57113;SDS011;42994;51.606;9.988;2023-02-28T11:50:57;5.72;;;3.20;;
57113;SDS011;42994;51.606;9.988;2023-02-28T11:53:47;5.72;;;3.20;;
57113;SDS011;42994;51.606;9.988;2023-02-28T11:56:25;4.30;;;3.00;;
57113;SDS011;42994;51.606;9.988;2023-02-28T11:59:02;3.80;;;2.78;;
57113;SDS011;42994;51.606;9.988;2023-02-28T12:01:40;5.30;;;2.35;;
57113;SDS011;42994;51.606;9.988;2023-02-28T12:04:23;7.85;;;3.17;;
57113;SDS011;42994;51.606;9.988;2023-02-28T12:06:54;5.40;;;2.72;;
57113;SDS011;42994;51.606;9.988;2023-02-28T12:12:25;3.60;;;2.90;;
57113;SDS011;42994;51.606;9.988;2023-02-28T12:15:15;5.13;;;2.78;;
57113;SDS011;42994;51.606;9.988;2023-02-28T12:18:03;4.07;;;2.35;;
57113;SDS011;42994;51.606;9.988;2023-02-28T12:20:41;8.38;;;4.53;;
57113;SDS011;42994;51.606;9.988;2023-02-28T12:23:21;4.95;;;3.33;;
57113;SDS011;42994;51.606;9.988;2023-02-28T12:26:06;5.35;;;2.60;;
57113;SDS011;42994;51.606;9.988;2023-02-28T12:28:41;4.38;;;2.70;;
57113;SDS011;42994;51.606;9.988;2023-02-28T12:31:18;3.30;;;2.50;;
57113;SDS011;42994;51.606;9.988;2023-02-28T12:33:50;4.18;;;2.70;;
57113;SDS011;42994;51.606;9.988;2023-02-28T12:36:19;7.07;;;2.50;;
57113;SDS011;42994;51.606;9.988;2023-02-28T12:38:47;8.25;;;2.65;;
57113;SDS011;42994;51.606;9.988;2023-02-28T12:41:18;6.90;;;2.90;;
57113;SDS011;42994;51.606;9.988;2023-02-28T12:43:51;2.80;;;2.47;;
57113;SDS011;42994;51.606;9.988;2023-02-28T12:46:22;3.67;;;2.80;;
57113;SDS011;42994;51.606;9.988;2023-02-28T12:48:52;4.88;;;2.63;;
57113;SDS011;42994;51.606;9.988;2023-02-28T12:51:22;2.53;;;2.33;;
57113;SDS011;42994;51.606;9.988;2023-02-28T12:53:53;3.85;;;2.50;;
57113;SDS011;42994;51.606;9.988;2023-02-28T12:56:32;3.72;;;2.50;;
57113;SDS011;42994;51.606;9.988;2023-02-28T12:59:07;4.95;;;2.45;;
57113;SDS011;42994;51.606;9.988;2023-02-28T13:01:47;4.30;;;2.72;;
57113;SDS011;42994;51.606;9.988;2023-02-28T13:10:42;3.38;;;2.17;;
57113;SDS011;42994;51.606;9.988;2023-02-28T13:13:14;6.03;;;3.20;;
57113;SDS011;42994;51.606;9.988;2023-02-28T13:15:57;2.65;;;2.33;;
57113;SDS011;42994;51.606;9.988;2023-02-28T13:18:30;3.15;;;2.95;;
57113;SDS011;42994;51.606;9.988;2023-02-28T13:20:59;4.60;;;2.83;;
57113;SDS011;42994;51.606;9.988;2023-02-28T13:23:37;5.30;;;2.92;;
57113;SDS011;42994;51.606;9.988;2023-02-28T13:26:21;3.53;;;2.70;;
57113;SDS011;42994;51.606;9.988;2023-02-28T13:35:13;4.70;;;3.08;;
57113;SDS011;42994;51.606;9.988;2023-02-28T13:38:17;4.03;;;2.53;;
57113;SDS011;42994;51.606;9.988;2023-02-28T13:40:49;4.32;;;2.90;;
57113;SDS011;42994;51.606;9.988;2023-02-28T13:43:16;8.38;;;3.15;;
57113;SDS011;42994;51.606;9.988;2023-02-28T13:46:05;4.30;;;3.90;;
57113;SDS011;42994;51.606;9.988;2023-02-28T13:48:36;6.70;;;3.20;;
57113;SDS011;42994;51.606;9.988;2023-02-28T13:54:07;3.27;;;2.63;;
57113;SDS011;42994;51.606;9.988;2023-02-28T13:56:48;5.65;;;3.03;;
57113;SDS011;42994;51.606;9.988;2023-02-28T13:59:25;5.13;;;3.03;;
57113;SDS011;42994;51.606;9.988;2023-02-28T14:02:03;5.47;;;2.47;;
57113;SDS011;42994;51.606;9.988;2023-02-28T14:04:50;3.55;;;2.97;;
57113;SDS011;42994;51.606;9.988;2023-02-28T14:07:28;5.35;;;3.50;;
57113;SDS011;42994;51.606;9.988;2023-02-28T14:09:59;5.88;;;2.83;;
57113;SDS011;42994;51.606;9.988;2023-02-28T14:15:49;3.92;;;2.88;;
57113;SDS011;42994;51.606;9.988;2023-02-28T14:18:23;4.40;;;3.05;;
57113;SDS011;42994;51.606;9.988;2023-02-28T14:20:55;4.82;;;3.45;;
57113;SDS011;42994;51.606;9.988;2023-02-28T14:26:23;4.03;;;2.75;;
57113;SDS011;42994;51.606;9.988;2023-02-28T14:29:17;3.58;;;2.75;;
57113;SDS011;42994;51.606;9.988;2023-02-28T14:31:57;5.20;;;2.88;;
57113;SDS011;42994;51.606;9.988;2023-02-28T14:34:35;4.20;;;3.35;;
57113;SDS011;42994;51.606;9.988;2023-02-28T14:37:09;5.65;;;3.53;;
57113;SDS011;42994;51.606;9.988;2023-02-28T14:39:42;3.83;;;2.85;;
57113;SDS011;42994;51.606;9.988;2023-02-28T14:42:29;7.10;;;3.67;;
57113;SDS011;42994;51.606;9.988;2023-02-28T14:44:58;5.07;;;3.33;;
57113;SDS011;42994;51.606;9.988;2023-02-28T14:47:26;4.05;;;3.17;;
57113;SDS011;42994;51.606;9.988;2023-02-28T14:49:56;6.23;;;3.70;;
57113;SDS011;42994;51.606;9.988;2023-02-28T14:52:24;5.55;;;3.60;;
57113;SDS011;42994;51.606;9.988;2023-02-28T14:54:55;3.92;;;3.40;;
57113;SDS011;42994;51.606;9.988;2023-02-28T14:57:24;5.07;;;3.63;;
57113;SDS011;42994;51.606;9.988;2023-02-28T14:59:59;5.72;;;3.40;;
57113;SDS011;42994;51.606;9.988;2023-02-28T15:02:30;7.88;;;5.22;;
57113;SDS011;42994;51.606;9.988;2023-02-28T15:05:01;7.63;;;5.20;;
57113;SDS011;42994;51.606;9.988;2023-02-28T15:07:45;7.40;;;4.60;;
57113;SDS011;42994;51.606;9.988;2023-02-28T15:10:20;6.35;;;4.55;;
57113;SDS011;42994;51.606;9.988;2023-02-28T15:12:51;5.82;;;4.45;;
57113;SDS011;42994;51.606;9.988;2023-02-28T15:15:21;9.25;;;5.65;;
57113;SDS011;42994;51.606;9.988;2023-02-28T15:17:50;8.30;;;5.90;;
57113;SDS011;42994;51.606;9.988;2023-02-28T15:20:20;14.32;;;6.60;;
57113;SDS011;42994;51.606;9.988;2023-02-28T15:22:49;6.28;;;4.60;;
57113;SDS011;42994;51.606;9.988;2023-02-28T15:25:20;6.28;;;4.47;;
57113;SDS011;42994;51.606;9.988;2023-02-28T15:27:49;7.60;;;5.50;;
57113;SDS011;42994;51.606;9.988;2023-02-28T15:30:19;6.78;;;4.88;;
57113;SDS011;42994;51.606;9.988;2023-02-28T15:33:03;8.00;;;5.07;;
57113;SDS011;42994;51.606;9.988;2023-02-28T15:35:33;8.82;;;4.97;;
57113;SDS011;42994;51.606;9.988;2023-02-28T15:38:01;12.45;;;5.00;;
57113;SDS011;42994;51.606;9.988;2023-02-28T15:40:33;12.55;;;5.40;;
57113;SDS011;42994;51.606;9.988;2023-02-28T15:43:04;7.10;;;5.32;;